createdAt,value
2022-08-07T00:01:44.232Z,97608.66
2022-08-07T00:04:15.579Z,97605.41
2022-08-07T00:06:51.556Z,97606.13
2022-08-07T00:09:20.946Z,97602.44
2022-08-07T00:11:55.585Z,97595.97
2022-08-07T00:14:34.246Z,97594.53
2022-08-07T00:17:08.210Z,97593.28
2022-08-07T00:20:01.058Z,97598.53
2022-08-07T00:22:24.415Z,97597.50
2022-08-07T00:25:15.715Z,97583.16
2022-08-07T00:27:52.627Z,97590.22
2022-08-07T00:30:26.461Z,97590.69
2022-08-07T00:32:58.453Z,97590.13
2022-08-07T00:35:26.855Z,97583.25
2022-08-07T00:37:56.742Z,97576.41
2022-08-07T00:40:36.717Z,97574.97
2022-08-07T00:43:58.702Z,97578.94
2022-08-07T00:46:02.836Z,97581.88
2022-08-07T00:48:32.068Z,97582.59
2022-08-07T00:51:00.498Z,97580.22
2022-08-07T00:53:27.687Z,97581.56
2022-08-07T00:56:13.735Z,97578.78
2022-08-07T00:58:46.786Z,97568.63
2022-08-07T01:01:15.479Z,97569.84
2022-08-07T01:03:56.252Z,97568.28
2022-08-07T01:06:28.882Z,97568.53
2022-08-07T01:09:00.643Z,97562.91
2022-08-07T01:12:27.364Z,97563.16
2022-08-07T01:14:21.166Z,97563.59
2022-08-07T01:16:49.205Z,97568.16
2022-08-07T01:19:19.653Z,97556.81
2022-08-07T01:21:53.439Z,97559.38
2022-08-07T01:24:25.860Z,97554.81
2022-08-07T01:26:58.786Z,97566.38
2022-08-07T01:29:31.630Z,97555.34
2022-08-07T01:32:05.207Z,97557.97
2022-08-07T01:34:33.498Z,97567.41
2022-08-07T01:37:09.895Z,97571.16
2022-08-07T01:39:40.969Z,97568.06
2022-08-07T01:42:38.454Z,97570.50
2022-08-07T01:45:23.014Z,97559.13
2022-08-07T01:48:19.665Z,97563.69
2022-08-07T01:50:55.779Z,97553.66
2022-08-07T01:54:12.760Z,97550.91
2022-08-07T01:56:28.895Z,97555.00
2022-08-07T01:59:19.594Z,97555.56
2022-08-07T02:02:02.599Z,97547.81
2022-08-07T02:04:40.426Z,97543.78
2022-08-07T02:07:23.943Z,97533.91
2022-08-07T02:10:14.313Z,97538.47
2022-08-07T02:12:46.390Z,97534.88
2022-08-07T02:15:23.796Z,97538.75
2022-08-07T02:17:53.961Z,97539.34
2022-08-07T02:20:24.141Z,97528.56
2022-08-07T02:23:00.115Z,97533.38
2022-08-07T02:26:10.735Z,97527.47
2022-08-07T02:28:25.606Z,97531.56
2022-08-07T02:30:59.464Z,97526.44
2022-08-07T02:34:01.516Z,97524.50
2022-08-07T02:36:28.206Z,97525.09
2022-08-07T02:38:57.755Z,97522.72
2022-08-07T02:41:33.211Z,97522.47
2022-08-07T02:44:01.624Z,97520.09
2022-08-07T02:46:31.139Z,97516.97
2022-08-07T02:48:58.647Z,97521.19
2022-08-07T02:51:49.795Z,97518.31
2022-08-07T02:54:20.856Z,97515.44
2022-08-07T02:56:53.854Z,97514.47
2022-08-07T02:59:23.989Z,97517.34
2022-08-07T03:01:56.493Z,97524.91
2022-08-07T03:04:29.156Z,97522.00
2022-08-07T03:06:57.113Z,97519.75
2022-08-07T03:09:41.796Z,97516.97
2022-08-07T03:12:11.599Z,97507.03
2022-08-07T03:14:53.878Z,97516.53
2022-08-07T03:17:22.107Z,97517.50
2022-08-07T03:19:55.069Z,97513.91
2022-08-07T03:22:29.549Z,97504.78
2022-08-07T03:25:00.101Z,97514.28
2022-08-07T03:27:41.950Z,97523.25
2022-08-07T03:30:18.144Z,97509.84
2022-08-07T03:32:58.506Z,97511.63
2022-08-07T03:35:43.553Z,97511.53
2022-08-07T03:38:13.335Z,97505.78
2022-08-07T03:40:44.532Z,97505.53
2022-08-07T03:43:15.506Z,97512.25
2022-08-07T03:45:50.781Z,97512.97
2022-08-07T03:48:23.067Z,97515.72
2022-08-07T03:50:57.978Z,97511.41
2022-08-07T03:53:50.205Z,97518.72
2022-08-07T03:56:33.392Z,97515.97
2022-08-07T03:59:09.187Z,97517.19
2022-08-07T04:01:43.023Z,97516.22
2022-08-07T04:04:10.747Z,97508.66
2022-08-07T04:06:45.487Z,97510.00
2022-08-07T04:09:16.296Z,97507.59
2022-08-07T04:12:25.501Z,97507.47
2022-08-07T04:14:38.635Z,97513.47
2022-08-07T04:17:21.212Z,97514.75
2022-08-07T04:19:54.182Z,97513.47
2022-08-07T04:22:27.633Z,97521.13
2022-08-07T04:25:01.670Z,97512.00
2022-08-07T04:27:35.589Z,97520.50
2022-08-07T04:30:11.836Z,97517.03
2022-08-07T04:32:58.011Z,97517.75
2022-08-07T04:35:35.089Z,97521.72
2022-08-07T04:38:07.078Z,97518.38
2022-08-07T04:40:43.900Z,97521.47
2022-08-07T04:44:13.090Z,97519.56
2022-08-07T04:46:59.381Z,97519.94
2022-08-07T04:49:58.135Z,97530.09
2022-08-07T04:52:51.415Z,97535.13
2022-08-07T04:58:15.943Z,97539.44
2022-08-07T04:59:15.888Z,97542.91
2022-08-07T05:02:07.216Z,97545.06
2022-08-07T05:04:50.129Z,97540.75
2022-08-07T05:08:05.513Z,97540.63
2022-08-07T05:10:41.014Z,97538.94
2022-08-07T05:14:53.823Z,97553.06
2022-08-07T05:16:06.507Z,97547.28
2022-08-07T05:18:36.893Z,97543.63
2022-08-07T05:21:06.425Z,97546.22
2022-08-07T05:23:41.245Z,97547.38
2022-08-07T05:26:29.451Z,97553.59
2022-08-07T05:29:04.618Z,97556.28
2022-08-07T05:31:38.632Z,97549.91
2022-08-07T05:34:19.023Z,97561.50
2022-08-07T05:36:52.725Z,97564.19
2022-08-07T05:40:16.512Z,97558.03
2022-08-07T05:42:34.269Z,97565.78
2022-08-07T05:45:14.224Z,97564.28
2022-08-07T05:48:01.953Z,97564.91
2022-08-07T05:50:36.148Z,97572.47
2022-08-07T05:53:06.823Z,97570.88
2022-08-07T05:56:02.462Z,97573.66
2022-08-07T05:58:36.562Z,97581.94
2022-08-07T06:01:10.829Z,97583.16
2022-08-07T06:03:56.889Z,97578.19
2022-08-07T06:06:29.692Z,97580.31
2022-08-07T06:09:04.589Z,97584.28
2022-08-07T06:11:34.453Z,97592.38
2022-08-07T06:14:11.418Z,97588.75
2022-08-07T06:16:50.262Z,97592.81
2022-08-07T06:19:57.745Z,97587.69
2022-08-07T06:22:24.136Z,97593.78
2022-08-07T06:25:34.663Z,97586.06
2022-08-07T06:28:10.408Z,97580.91
2022-08-07T06:30:46.110Z,97586.22
2022-08-07T06:33:22.732Z,97581.22
2022-08-07T06:36:11.940Z,97579.53
2022-08-07T06:38:58.751Z,97586.94
2022-08-07T06:42:00.737Z,97581.16
2022-08-07T06:44:51.114Z,97574.72
2022-08-07T06:47:21.053Z,97578.38
2022-08-07T06:49:52.045Z,97568.97
2022-08-07T06:52:31.531Z,97572.13
2022-08-07T06:55:33.327Z,97568.97
2022-08-07T06:58:11.403Z,97569.56
2022-08-07T07:00:59.375Z,97567.22
2022-08-07T07:03:47.658Z,97571.91
2022-08-07T07:06:14.667Z,97571.69
2022-08-07T07:08:50.939Z,97570.84
2022-08-07T07:12:07.646Z,97570.56
2022-08-07T07:14:08.592Z,97575.88
2022-08-07T07:16:45.201Z,97581.41
2022-08-07T07:19:55.176Z,97578.53
2022-08-07T07:22:33.768Z,97581.84
2022-08-07T07:25:02.881Z,97578.97
2022-08-07T07:27:56.346Z,97578.78
2022-08-07T07:30:39.565Z,97576.34
2022-08-07T07:33:11.792Z,97576.16
2022-08-07T07:35:54.211Z,97579.34
2022-08-07T07:38:25.513Z,97575.00
2022-08-07T07:41:02.161Z,97582.97
2022-08-07T07:44:13.808Z,97578.47
2022-08-07T07:46:37.827Z,97576.38
2022-08-07T07:50:29.831Z,97568.13
2022-08-07T07:51:58.531Z,97577.00
2022-08-07T07:54:26.891Z,97566.13
2022-08-07T07:56:55.181Z,97576.16
2022-08-07T07:59:51.549Z,97562.28
2022-08-07T08:02:22.554Z,97563.59
2022-08-07T08:05:05.607Z,97569.72
2022-08-07T08:07:42.380Z,97558.00
2022-08-07T08:10:37.807Z,97563.06
2022-08-07T08:13:10.656Z,97555.84
2022-08-07T08:15:57.999Z,97556.41
2022-08-07T08:18:32.368Z,97550.41
2022-08-07T08:21:03.962Z,97550.69
2022-08-07T08:24:07.030Z,97545.28
2022-08-07T08:27:17.582Z,97552.56
2022-08-07T08:29:56.046Z,97553.47
2022-08-07T08:32:39.233Z,97544.50
2022-08-07T08:35:14.517Z,97543.38
2022-08-07T08:38:01.795Z,97540.84
2022-08-07T08:40:43.878Z,97532.09
2022-08-07T08:43:42.388Z,97534.31
2022-08-07T08:46:29.211Z,97533.31
2022-08-07T08:49:15.726Z,97548.91
2022-08-07T08:52:25.129Z,97553.22
2022-08-07T08:55:12.350Z,97539.94
2022-08-07T08:58:24.815Z,97544.53
2022-08-07T09:01:20.097Z,97541.84
2022-08-07T09:04:25.753Z,97542.97
2022-08-07T09:07:46.189Z,97542.13
2022-08-07T09:10:49.917Z,97542.47
2022-08-07T09:14:03.309Z,97534.78
2022-08-07T09:16:55.495Z,97533.19
2022-08-07T09:19:59.951Z,97530.22
2022-08-07T09:24:33.252Z,97527.28
2022-08-07T09:26:06.969Z,97520.13
2022-08-07T09:30:02.141Z,97518.94
2022-08-07T09:32:04.514Z,97526.22
2022-08-07T09:36:04.465Z,97520.28
2022-08-07T09:38:25.972Z,97516.91
2022-08-07T09:41:16.248Z,97517.69
2022-08-07T09:44:30.239Z,97520.25
2022-08-07T09:47:50.718Z,97528.44
2022-08-07T09:50:30.159Z,97512.44
2022-08-07T09:53:08.799Z,97509.28
2022-08-07T09:56:11.099Z,97511.41
2022-08-07T09:59:01.351Z,97509.81
2022-08-07T10:01:53.117Z,97516.09
2022-08-07T10:04:45.902Z,97503.72
2022-08-07T10:07:39.616Z,97496.78
2022-08-07T10:11:16.698Z,97497.34
2022-08-07T10:14:13.925Z,97499.34
2022-08-07T10:17:14.457Z,97499.03
2022-08-07T10:20:30.571Z,97492.53
2022-08-07T10:24:06.733Z,97486.75
2022-08-07T10:26:53.626Z,97480.88
2022-08-07T10:30:13.630Z,97480.88
2022-08-07T10:34:06.717Z,97479.25
2022-08-07T10:36:31.364Z,97478.66
2022-08-07T10:39:41.319Z,97473.81
2022-08-07T10:42:46.610Z,97473.34
2022-08-07T10:45:37.976Z,97469.94
2022-08-07T10:48:53.254Z,97478.47
2022-08-07T10:51:39.631Z,97466.75
2022-08-07T10:55:26.937Z,97465.72
2022-08-07T10:58:15.260Z,97451.19
2022-08-07T11:01:12.280Z,97454.31
2022-08-07T11:04:16.514Z,97460.84
2022-08-07T11:07:15.120Z,97461.63
2022-08-07T11:10:08.971Z,97446.44
2022-08-07T11:14:43.717Z,97451.44
2022-08-07T11:16:29.759Z,97453.53
2022-08-07T11:19:14.137Z,97452.22
2022-08-07T11:22:19.139Z,97447.44
2022-08-07T11:25:49.716Z,97446.03
2022-08-07T11:28:32.775Z,97444.03
2022-08-07T11:31:47.292Z,97437.03
2022-08-07T11:34:31.659Z,97442.06
2022-08-07T11:37:11.750Z,97438.56
2022-08-07T11:40:08.645Z,97433.78
2022-08-07T11:43:08.755Z,97439.41
2022-08-07T11:45:55.474Z,97428.81
2022-08-07T11:48:29.649Z,97430.97
2022-08-07T11:51:44.758Z,97433.00
2022-08-07T11:54:14.288Z,97428.22
2022-08-07T11:57:17.004Z,97438.66
2022-08-07T12:00:12.326Z,97425.44
2022-08-07T12:03:45.165Z,97432.59
2022-08-07T12:06:57.286Z,97428.41
2022-08-07T12:10:09.744Z,97418.56
2022-08-07T12:12:53.569Z,97422.81
2022-08-07T12:16:05.127Z,97415.78
2022-08-07T12:18:34.095Z,97430.56
2022-08-07T12:22:36.945Z,97424.28
2022-08-07T12:24:43.160Z,97423.03
2022-08-07T12:28:04.063Z,97419.53
2022-08-07T12:30:23.630Z,97411.75
2022-08-07T12:33:23.102Z,97416.69
2022-08-07T12:36:02.300Z,97423.72
2022-08-07T12:38:43.359Z,97415.22
2022-08-07T12:41:50.614Z,97413.22
2022-08-07T12:44:26.527Z,97409.78
2022-08-07T12:47:21.793Z,97406.31
2022-08-07T12:50:39.052Z,97398.66
2022-08-07T12:53:22.536Z,97403.63
2022-08-07T12:56:26.621Z,97407.81
2022-08-07T12:59:04.029Z,97406.34
2022-08-07T13:02:10.316Z,97407.78
2022-08-07T13:06:02.061Z,97399.34
2022-08-07T13:08:42.832Z,97400.09
2022-08-07T13:12:00.959Z,97390.97
2022-08-07T13:14:57.811Z,97386.78
2022-08-07T13:18:26.918Z,97384.00
2022-08-07T13:21:51.125Z,97386.81
2022-08-07T13:24:25.786Z,97388.94
2022-08-07T13:27:02.913Z,97396.69
2022-08-07T13:29:42.442Z,97384.72
2022-08-07T13:32:37.390Z,97385.44
2022-08-07T13:36:01.070Z,97379.81
2022-08-07T13:39:11.150Z,97369.97
2022-08-07T13:41:54.639Z,97379.81
2022-08-07T13:44:34.556Z,97364.34
2022-08-07T13:47:21.783Z,97372.78
2022-08-07T13:50:33.402Z,97361.53
2022-08-07T13:53:03.446Z,97362.22
2022-08-07T13:55:38.288Z,97361.53
2022-08-07T13:58:37.593Z,97350.97
2022-08-07T14:01:22.134Z,97353.78
2022-08-07T14:04:06.741Z,97346.72
2022-08-07T14:06:50.612Z,97346.75
2022-08-07T14:10:08.373Z,97349.56
2022-08-07T14:12:58.252Z,97341.09
2022-08-07T14:15:38.459Z,97337.59
2022-08-07T14:18:28.501Z,97343.22
2022-08-07T14:22:02.519Z,97335.50
2022-08-07T14:24:20.420Z,97343.91
2022-08-07T14:27:02.472Z,97331.94
2022-08-07T14:30:05.596Z,97339.66
2022-08-07T14:32:48.116Z,97336.09
2022-08-07T14:35:44.659Z,97329.75
2022-08-07T14:38:26.195Z,97334.69
2022-08-07T14:41:12.135Z,97329.00
2022-08-07T14:43:59.292Z,97332.53
2022-08-07T14:46:32.016Z,97331.78
2022-08-07T14:52:03.882Z,97328.97
2022-08-07T14:54:35.741Z,97321.91
2022-08-07T14:57:18.765Z,97321.28
2022-08-07T15:00:05.191Z,97325.53
2022-08-07T15:02:34.734Z,97322.66
2022-08-07T15:05:02.987Z,97329.69
2022-08-07T15:07:51.266Z,97331.09
2022-08-07T15:10:26.260Z,97328.25
2022-08-07T15:13:00.476Z,97328.22
2022-08-07T15:15:38.537Z,97326.78
2022-08-07T15:18:14.310Z,97324.63
2022-08-07T15:20:59.311Z,97322.50
2022-08-07T15:25:14.273Z,97322.47
2022-08-07T15:26:28.624Z,97319.03
2022-08-07T15:32:00.766Z,97321.13
2022-08-07T15:34:50.191Z,97310.38
2022-08-07T15:38:04.876Z,97318.59
2022-08-07T15:40:34.585Z,97309.44
2022-08-07T15:43:33.104Z,97310.41
2022-08-07T15:46:32.490Z,97312.19
2022-08-07T15:49:13.370Z,97302.34
2022-08-07T15:54:39.481Z,97305.81
2022-08-07T15:57:40.338Z,97303.09
2022-08-07T16:00:04.418Z,97295.16
2022-08-07T16:02:39.904Z,97286.13
2022-08-07T16:05:15.445Z,97279.97
2022-08-07T16:08:31.007Z,97286.44
2022-08-07T16:10:36.737Z,97288.47
2022-08-07T16:13:39.589Z,97282.69
2022-08-07T16:16:48.876Z,97275.66
2022-08-07T16:19:43.077Z,97272.94
2022-08-07T16:22:36.424Z,97270.59
2022-08-07T16:25:52.979Z,97267.41
2022-08-07T16:30:07.246Z,97279.16
2022-08-07T16:31:51.983Z,97263.91
2022-08-07T16:34:24.153Z,97262.69
2022-08-07T16:37:02.605Z,97254.41
2022-08-07T16:39:58.706Z,97258.53
2022-08-07T16:43:05.154Z,97268.53
2022-08-07T16:47:06.809Z,97257.13
2022-08-07T16:50:28.246Z,97270.03
2022-08-07T16:52:52.402Z,97261.63
2022-08-07T16:55:43.716Z,97259.72
2022-08-07T16:59:11.364Z,97270.06
2022-08-07T17:01:41.287Z,97261.47
2022-08-07T17:04:24.442Z,97261.75
2022-08-07T17:06:57.943Z,97263.81
2022-08-07T17:10:08.751Z,97264.63
2022-08-07T17:12:44.766Z,97265.16
2022-08-07T17:15:15.733Z,97268.28
2022-08-07T17:17:49.324Z,97270.75
2022-08-07T17:20:30.917Z,97256.81
2022-08-07T17:23:16.958Z,97262.13
2022-08-07T17:26:02.561Z,97260.13
2022-08-07T17:28:35.531Z,97264.72
2022-08-07T17:31:19.258Z,97265.84
2022-08-07T17:34:34.187Z,97265.53
2022-08-07T17:37:14.333Z,97284.34
2022-08-07T17:40:03.343Z,97286.88
2022-08-07T17:43:15.219Z,97285.34
2022-08-07T17:45:55.591Z,97282.56
2022-08-07T17:48:34.246Z,97283.94
2022-08-07T17:51:11.875Z,97298.72
2022-08-07T17:54:29.853Z,97300.53
2022-08-07T17:57:18.437Z,97300.44
2022-08-07T17:59:50.594Z,97296.16
2022-08-07T18:02:23.393Z,97302.53
2022-08-07T18:05:28.274Z,97307.38
2022-08-07T18:09:00.587Z,97312.81
2022-08-07T18:12:06.491Z,97310.44
2022-08-07T18:14:44.961Z,97316.28
2022-08-07T18:18:45.377Z,97323.44
2022-08-07T18:21:07.605Z,97319.25
2022-08-07T18:23:43.375Z,97318.59
2022-08-07T18:26:16.401Z,97332.66
2022-08-07T18:29:04.295Z,97332.63
2022-08-07T18:31:50.219Z,97336.81
2022-08-07T18:34:33.845Z,97334.63
2022-08-07T18:38:58.180Z,97346.50
2022-08-07T18:40:43.057Z,97357.66
2022-08-07T18:43:48.948Z,97363.16
2022-08-07T18:46:26.790Z,97358.88
2022-08-07T18:50:30.242Z,97360.84
2022-08-07T18:52:33.856Z,97364.94
2022-08-07T18:55:41.823Z,97363.38
2022-08-07T18:58:25.338Z,97371.59
2022-08-07T19:02:19.256Z,97366.44
2022-08-07T19:04:32.079Z,97372.38
2022-08-07T19:07:08.393Z,97374.19
2022-08-07T19:09:56.689Z,97377.41
2022-08-07T19:12:53.604Z,97380.53
2022-08-07T19:16:05.024Z,97387.09
2022-08-07T19:19:00.035Z,97393.72
2022-08-07T19:21:47.833Z,97402.44
2022-08-07T19:24:44.418Z,97398.63
2022-08-07T19:29:00.150Z,97407.94
2022-08-07T19:31:05.964Z,97411.13
2022-08-07T19:33:16.078Z,97412.69
2022-08-07T19:35:50.271Z,97414.31
2022-08-07T19:38:17.801Z,97422.97
2022-08-07T19:40:50.298Z,97424.75
2022-08-07T19:43:44.269Z,97423.22
2022-08-07T19:46:14.853Z,97430.00
2022-08-07T19:48:53.605Z,97432.53
2022-08-07T19:51:24.401Z,97427.78
2022-08-07T19:54:34.268Z,97432.78
2022-08-07T19:58:02.494Z,97426.25
2022-08-07T19:59:52.847Z,97435.03
2022-08-07T20:02:30.343Z,97431.31
2022-08-07T20:05:00.907Z,97441.75
2022-08-07T20:07:46.350Z,97433.81
2022-08-07T20:10:35.474Z,97445.34
2022-08-07T20:13:07.644Z,97445.25
2022-08-07T20:15:49.845Z,97447.06
2022-08-07T20:18:19.907Z,97446.19
2022-08-07T20:20:46.729Z,97448.56
2022-08-07T20:23:41.910Z,97436.41
2022-08-07T20:26:09.752Z,97441.56
2022-08-07T20:28:39.039Z,97444.03
2022-08-07T20:31:21.711Z,97447.03
2022-08-07T20:33:56.471Z,97444.28
2022-08-07T20:36:25.595Z,97445.72
2022-08-07T20:39:00.688Z,97442.13
2022-08-07T20:41:40.348Z,97442.63
2022-08-07T20:44:12.401Z,97440.41
2022-08-07T20:46:42.911Z,97442.81
2022-08-07T20:49:59.148Z,97441.78
2022-08-07T20:52:00.671Z,97439.00
2022-08-07T20:54:29.846Z,97434.13
2022-08-07T20:57:04.888Z,97437.47
2022-08-07T21:00:06.282Z,97439.88
2022-08-07T21:02:41.112Z,97436.75
2022-08-07T21:05:25.763Z,97437.94
2022-08-07T21:08:20.672Z,97434.16
2022-08-07T21:11:04.841Z,97433.72
2022-08-07T21:13:43.815Z,97434.16
2022-08-07T21:16:38.079Z,97436.84
2022-08-07T21:19:32.370Z,97439.63
2022-08-07T21:22:16.635Z,97435.72
2022-08-07T21:25:20.642Z,97432.56
2022-08-07T21:28:02.550Z,97425.50
2022-08-07T21:30:38.411Z,97439.97
2022-08-07T21:33:41.147Z,97427.91
2022-08-07T21:36:31.159Z,97433.81
2022-08-07T21:39:46.030Z,97431.50
2022-08-07T21:42:42.417Z,97429.34
2022-08-07T21:46:07.959Z,97432.78
2022-08-07T21:48:32.521Z,97437.63
2022-08-07T21:51:05.172Z,97434.75
2022-08-07T21:53:46.491Z,97433.16
2022-08-07T21:56:36.483Z,97432.16
2022-08-07T21:59:25.980Z,97428.44
2022-08-07T22:02:10.949Z,97431.22
2022-08-07T22:04:51.184Z,97431.28
2022-08-07T22:07:48.808Z,97429.16
2022-08-07T22:10:24.666Z,97430.25
2022-08-07T22:12:58.265Z,97433.31
2022-08-07T22:16:41.891Z,97439.59
2022-08-07T22:18:28.481Z,97439.44
2022-08-07T22:21:01.427Z,97443.56
2022-08-07T22:23:33.447Z,97444.25
2022-08-07T22:26:16.842Z,97442.28
2022-08-07T22:28:55.558Z,97445.63
2022-08-07T22:32:00.233Z,97446.09
2022-08-07T22:34:53.497Z,97454.03
2022-08-07T22:37:23.448Z,97448.91
2022-08-07T22:40:05.101Z,97452.16
2022-08-07T22:42:34.258Z,97454.69
2022-08-07T22:45:04.166Z,97443.31
2022-08-07T22:47:56.658Z,97447.38
2022-08-07T22:50:33.214Z,97458.78
2022-08-07T22:54:05.352Z,97452.50
2022-08-07T22:56:16.603Z,97460.03
2022-08-07T22:59:14.323Z,97463.91
2022-08-07T23:02:22.784Z,97472.16
2022-08-07T23:06:09.633Z,97465.44
2022-08-07T23:08:24.029Z,97461.53
2022-08-07T23:11:12.935Z,97461.88
2022-08-07T23:14:22.730Z,97470.78
2022-08-07T23:17:15.597Z,97467.13
2022-08-07T23:20:51.280Z,97452.84
2022-08-07T23:24:06.427Z,97454.19
2022-08-07T23:27:10.801Z,97454.88
2022-08-07T23:30:39.500Z,97449.34
2022-08-07T23:34:23.709Z,97449.81
2022-08-07T23:36:32.053Z,97445.59
2022-08-07T23:39:21.976Z,97450.16
2022-08-07T23:42:04.361Z,97452.91
2022-08-07T23:44:54.075Z,97451.41
2022-08-07T23:47:47.898Z,97452.03
2022-08-07T23:50:17.658Z,97447.22
2022-08-07T23:53:05.211Z,97453.91
2022-08-07T23:56:02.429Z,97438.97
2022-08-07T23:58:54.641Z,97443.69
